createdAt,value
2018-11-05T00:01:35.106Z,101209.55
2018-11-05T00:06:19.138Z,101212.27
2018-11-05T00:11:02.054Z,101205.38
2018-11-05T00:15:45.243Z,101200.35
2018-11-05T00:20:28.189Z,101200.72
2018-11-05T00:25:13.899Z,101193.98
2018-11-05T00:29:56.786Z,101192.92
2018-11-05T00:34:40.780Z,101187.47
2018-11-05T00:39:23.674Z,101188.63
2018-11-05T00:44:07.027Z,101182.81
2018-11-05T00:48:49.904Z,101178.89
2018-11-05T00:53:32.819Z,101187.87
2018-11-05T00:58:15.690Z,101178.91
2018-11-05T01:02:59.609Z,101173.94
2018-11-05T01:07:43.436Z,101174.05
2018-11-05T01:12:27.455Z,101169.39
2018-11-05T01:17:10.390Z,101169.23
2018-11-05T01:21:55.600Z,101165.14
2018-11-05T01:26:38.467Z,101161.83
2018-11-05T01:31:21.382Z,101156.23
2018-11-05T01:36:04.489Z,101157.44
2018-11-05T01:40:47.385Z,101154.95
2018-11-05T01:45:30.432Z,101160.20
2018-11-05T01:50:15.010Z,101155.07
2018-11-05T01:54:57.976Z,101161.89
2018-11-05T01:59:40.836Z,101153.72
2018-11-05T02:04:23.759Z,101146.89
2018-11-05T02:09:08.070Z,101146.44
2018-11-05T02:13:52.097Z,101145.55
2018-11-05T02:18:34.992Z,101153.75
2018-11-05T02:23:19.110Z,101156.05
2018-11-05T02:28:01.959Z,101160.12
2018-11-05T02:32:45.299Z,101160.78
2018-11-05T02:37:28.208Z,101166.68
2018-11-05T02:42:12.385Z,101155.25
2018-11-05T02:46:55.297Z,101158.30
2018-11-05T02:51:38.168Z,101163.53
2018-11-05T02:56:21.043Z,101166.89
2018-11-05T03:01:03.959Z,101161.67
2018-11-05T03:05:47.102Z,101160.02
2018-11-05T03:10:29.978Z,101151.28
2018-11-05T03:15:14.324Z,101152.36
2018-11-05T03:19:57.248Z,101152.28
2018-11-05T03:24:41.238Z,101150.17
2018-11-05T03:29:24.450Z,101149.48
2018-11-05T03:34:07.496Z,101143.77
2018-11-05T03:38:50.431Z,101147.25
2018-11-05T03:43:33.483Z,101146.78
2018-11-05T03:48:16.361Z,101152.44
2018-11-05T03:53:00.271Z,101142.67
2018-11-05T03:57:43.187Z,101147.59
2018-11-05T04:02:26.341Z,101149.65
2018-11-05T04:07:09.212Z,101154.69
2018-11-05T04:11:53.134Z,101156.23
2018-11-05T04:16:36.012Z,101142.45
2018-11-05T04:21:26.963Z,101150.18
2018-11-05T04:26:09.882Z,101148.44
2018-11-05T04:30:52.794Z,101148.29
2018-11-05T04:35:36.702Z,101147.00
2018-11-05T04:40:19.593Z,101145.56
2018-11-05T04:45:02.586Z,101143.30
2018-11-05T04:49:45.478Z,101147.16
2018-11-05T04:54:28.518Z,101148.32
2018-11-05T04:59:11.429Z,101162.67
2018-11-05T05:03:54.499Z,101157.11
2018-11-05T05:08:37.417Z,101162.56
2018-11-05T05:13:22.360Z,101160.58
2018-11-05T05:18:05.426Z,101160.08
2018-11-05T05:22:48.456Z,101167.66
2018-11-05T05:27:31.267Z,101169.84
2018-11-05T05:32:15.154Z,101168.72
2018-11-05T05:36:58.056Z,101180.16
2018-11-05T05:41:42.009Z,101179.83
2018-11-05T05:46:24.873Z,101185.27
2018-11-05T05:51:08.987Z,101183.51
2018-11-05T05:55:51.868Z,101186.47
2018-11-05T06:00:34.734Z,101183.20
2018-11-05T06:05:17.662Z,101183.19
2018-11-05T06:10:00.550Z,101186.05
2018-11-05T06:14:43.779Z,101181.78
2018-11-05T06:19:26.654Z,101192.95
2018-11-05T06:24:09.674Z,101197.03
2018-11-05T06:28:52.575Z,101196.16
2018-11-05T06:33:35.727Z,101194.36
2018-11-05T06:38:18.650Z,101196.59
2018-11-05T06:43:02.789Z,101194.94
2018-11-05T06:47:46.066Z,101195.80
2018-11-05T06:52:30.043Z,101190.23
2018-11-05T06:57:12.943Z,101194.07
2018-11-05T07:01:56.907Z,101190.30
2018-11-05T07:06:39.837Z,101191.88
2018-11-05T07:11:22.947Z,101184.53
2018-11-05T07:16:05.850Z,101184.70
2018-11-05T07:20:49.915Z,101188.19
2018-11-05T07:25:32.855Z,101180.56
2018-11-05T07:30:18.414Z,101185.06
2018-11-05T07:35:02.431Z,101179.24
2018-11-05T07:39:45.304Z,101181.09
2018-11-05T07:44:28.442Z,101175.05
2018-11-05T07:49:11.348Z,101173.09
2018-11-05T07:53:55.501Z,101174.12
2018-11-05T07:58:38.388Z,101166.70
2018-11-05T08:03:22.248Z,101166.98
2018-11-05T08:08:06.080Z,101166.52
2018-11-05T08:12:53.415Z,101172.87
2018-11-05T08:17:36.274Z,101171.02
2018-11-05T08:22:22.469Z,101176.19
2018-11-05T08:27:06.268Z,101173.29
2018-11-05T08:31:49.670Z,101169.94
2018-11-05T08:36:33.110Z,101173.59
2018-11-05T08:41:17.150Z,101171.72
2018-11-05T08:46:00.066Z,101175.08
2018-11-05T08:50:44.307Z,101178.31
2018-11-05T08:55:27.756Z,101168.23
2018-11-05T09:00:16.321Z,101171.52
2018-11-05T09:04:59.212Z,101165.44
2018-11-05T09:09:42.545Z,101164.77
2018-11-05T09:14:25.455Z,101157.69
2018-11-05T09:19:08.393Z,101153.36
2018-11-05T09:23:52.239Z,101150.66
2018-11-05T09:28:35.158Z,101138.78
2018-11-05T09:33:19.039Z,101129.42
2018-11-05T09:38:01.912Z,101123.30
2018-11-05T09:42:48.912Z,101122.45
2018-11-05T09:47:31.706Z,101127.75
2018-11-05T09:52:15.717Z,101110.94
2018-11-05T09:56:58.602Z,101107.48
2018-11-05T10:01:43.498Z,101096.92
2018-11-05T10:06:26.822Z,101092.84
2018-11-05T10:11:10.829Z,101093.74
2018-11-05T10:15:53.710Z,101082.09
2018-11-05T10:20:39.921Z,101076.59
2018-11-05T10:25:22.839Z,101080.03
2018-11-05T10:30:10.973Z,101077.65
2018-11-05T10:34:53.855Z,101081.82
2018-11-05T10:39:36.745Z,101069.28
2018-11-05T10:44:19.697Z,101065.14
2018-11-05T10:49:02.611Z,101069.13
2018-11-05T10:53:46.501Z,101060.28
2018-11-05T10:58:29.424Z,101061.05
2018-11-05T11:03:16.625Z,101055.92
2018-11-05T11:08:00.440Z,101064.77
2018-11-05T11:12:44.421Z,101068.02
2018-11-05T11:17:27.290Z,101057.28
2018-11-05T11:22:11.311Z,101048.98
2018-11-05T11:26:54.196Z,101046.89
2018-11-05T11:31:37.610Z,101044.33
2018-11-05T11:36:20.558Z,101039.06
2018-11-05T11:41:03.562Z,101042.12
2018-11-05T11:45:46.448Z,101030.48
2018-11-05T11:50:29.636Z,101027.05
2018-11-05T11:55:14.393Z,101032.84
2018-11-05T11:59:57.264Z,101023.98
2018-11-05T12:04:41.167Z,101019.60
2018-11-05T12:09:24.315Z,101022.21
2018-11-05T12:14:07.570Z,101019.92
2018-11-05T12:18:50.391Z,101006.10
2018-11-05T12:23:34.346Z,101003.98
2018-11-05T12:28:17.247Z,101007.11
2018-11-05T12:33:03.347Z,101000.77
2018-11-05T12:37:47.507Z,101001.58
2018-11-05T12:42:33.581Z,101003.78
2018-11-05T12:47:16.534Z,100999.84
2018-11-05T12:52:01.611Z,100996.29
2018-11-05T12:56:44.488Z,100997.29
2018-11-05T13:01:31.900Z,100999.50
2018-11-05T13:06:14.799Z,100998.08
2018-11-05T13:10:58.761Z,101001.44
2018-11-05T13:15:41.687Z,100999.42
2018-11-05T13:20:24.906Z,100994.78
2018-11-05T13:25:07.858Z,100998.77
2018-11-05T13:29:54.534Z,101001.84
2018-11-05T13:34:37.420Z,100998.64
2018-11-05T13:39:20.291Z,100993.08
2018-11-05T13:44:03.403Z,100999.81
2018-11-05T13:48:47.050Z,100999.64
2018-11-05T13:53:32.371Z,101008.02
2018-11-05T13:58:15.288Z,100993.09
2018-11-05T14:03:01.512Z,100996.61
2018-11-05T14:07:44.480Z,101007.20
2018-11-05T14:12:28.341Z,101007.84
2018-11-05T14:17:11.222Z,101006.78
2018-11-05T14:21:55.337Z,101012.08
2018-11-05T14:26:38.212Z,101012.92
2018-11-05T14:31:22.209Z,101011.31
2018-11-05T14:36:05.158Z,101011.83
2018-11-05T14:40:48.154Z,101011.62
2018-11-05T14:45:31.860Z,101014.78
2018-11-05T14:50:17.159Z,101020.58
2018-11-05T14:55:00.046Z,101023.34
2018-11-05T14:59:46.602Z,101020.73
2018-11-05T15:04:29.482Z,101023.84
2018-11-05T15:09:13.033Z,101025.20
2018-11-05T15:13:55.993Z,101024.53
2018-11-05T15:18:38.927Z,101026.46
2018-11-05T15:23:22.766Z,101034.64
2018-11-05T15:28:05.742Z,101040.63
2018-11-05T15:32:49.924Z,101045.22
2018-11-05T15:37:32.790Z,101044.98
2018-11-05T15:42:16.919Z,101047.82
2018-11-05T15:46:59.807Z,101053.66
2018-11-05T15:51:44.891Z,101054.42
2018-11-05T15:56:28.523Z,101064.27
2018-11-05T16:01:15.274Z,101064.58
2018-11-05T16:05:58.191Z,101067.94
2018-11-05T16:10:41.107Z,101075.47
2018-11-05T16:15:24.056Z,101080.31
2018-11-05T16:20:11.115Z,101082.96
2018-11-05T16:24:54.011Z,101084.84
2018-11-05T16:29:37.012Z,101091.05
2018-11-05T16:34:19.899Z,101092.14
2018-11-05T16:39:04.211Z,101098.16
2018-11-05T16:43:47.209Z,101094.72
2018-11-05T16:48:31.439Z,101098.62
2018-11-05T16:53:16.270Z,101100.81
2018-11-05T16:57:59.257Z,101100.26
2018-11-05T17:02:44.954Z,101102.83
2018-11-05T17:07:27.737Z,101103.72
2018-11-05T17:12:12.736Z,101099.41
2018-11-05T17:16:55.687Z,101092.64
2018-11-05T17:21:40.772Z,101099.86
2018-11-05T17:26:23.765Z,101093.34
2018-11-05T17:31:12.136Z,101095.41
2018-11-05T17:35:55.061Z,101087.71
2018-11-05T17:40:39.194Z,101093.34
2018-11-05T17:45:22.237Z,101097.78
2018-11-05T17:50:07.199Z,101099.61
2018-11-05T17:54:50.135Z,101095.20
2018-11-05T17:59:34.864Z,101086.69
2018-11-05T18:04:17.762Z,101090.66
2018-11-05T18:09:01.117Z,101085.53
2018-11-05T18:13:44.328Z,101091.37
2018-11-05T18:18:27.556Z,101088.11
2018-11-05T18:23:14.824Z,101087.29
2018-11-05T18:27:57.771Z,101089.55
2018-11-05T18:32:42.743Z,101091.50
2018-11-05T18:37:25.692Z,101079.30
2018-11-05T18:42:11.458Z,101076.03
2018-11-05T18:46:54.411Z,101083.44
2018-11-05T18:51:38.604Z,101087.30
2018-11-05T18:56:21.555Z,101089.43
2018-11-05T19:01:05.260Z,101090.87
2018-11-05T19:05:48.994Z,101098.37
2018-11-05T19:10:32.850Z,101098.61
2018-11-05T19:15:16.984Z,101101.22
2018-11-05T19:20:01.051Z,101103.98
2018-11-05T19:24:44.555Z,101099.08
2018-11-05T19:29:28.520Z,101100.54
2018-11-05T19:34:11.723Z,101104.41
2018-11-05T19:38:54.789Z,101103.96
2018-11-05T19:43:38.873Z,101099.13
2018-11-05T19:48:21.777Z,101098.55
2018-11-05T19:58:15.307Z,101096.08
2018-11-05T20:03:00.623Z,101087.89
2018-11-05T20:07:44.275Z,101084.42
2018-11-05T20:12:28.283Z,101084.13
2018-11-05T20:17:11.210Z,101086.08
2018-11-05T20:21:54.284Z,101085.18
2018-11-05T20:26:37.217Z,101082.77
2018-11-05T20:31:20.565Z,101076.67
2018-11-05T20:36:03.264Z,101077.25
2018-11-05T20:40:46.427Z,101073.97
2018-11-05T20:45:29.339Z,101067.56
2018-11-05T20:50:14.310Z,101069.47
2018-11-05T20:54:57.201Z,101063.78
2018-11-05T20:59:43.492Z,101063.50
2018-11-05T21:04:26.398Z,101060.28
2018-11-05T21:09:11.661Z,101068.78
2018-11-05T21:13:54.647Z,101057.05
2018-11-05T21:18:37.536Z,101057.13
2018-11-05T21:23:20.483Z,101046.50
2018-11-05T21:28:03.394Z,101050.18
2018-11-05T21:32:47.584Z,101044.84
2018-11-05T21:37:30.424Z,101046.44
2018-11-05T21:42:14.591Z,101041.70
2018-11-05T21:46:57.486Z,101039.83
2018-11-05T21:51:40.583Z,101043.03
2018-11-05T21:56:23.461Z,101045.03
2018-11-05T22:01:09.899Z,101041.88
2018-11-05T22:05:54.858Z,101038.87
2018-11-05T22:10:38.007Z,101041.06
2018-11-05T22:15:20.982Z,101041.81
2018-11-05T22:20:04.771Z,101043.89
2018-11-05T22:24:47.647Z,101045.36
2018-11-05T22:29:30.544Z,101048.55
2018-11-05T22:35:43.629Z,101041.81
2018-11-05T22:40:26.704Z,101046.74
2018-11-05T22:45:10.997Z,101048.94
2018-11-05T22:49:54.002Z,101046.92
2018-11-05T22:54:36.922Z,101052.57
2018-11-05T22:59:23.566Z,101050.03
2018-11-05T23:04:06.498Z,101050.56
2018-11-05T23:08:49.614Z,101046.41
2018-11-05T23:13:32.466Z,101042.94
2018-11-05T23:18:15.383Z,101045.84
2018-11-05T23:22:58.286Z,101043.26
2018-11-05T23:36:39.861Z,101042.31
2018-11-05T23:41:22.878Z,101044.00
2018-11-05T23:46:05.961Z,101041.06
2018-11-05T23:50:52.766Z,101041.73
2018-11-05T23:55:35.664Z,101039.61
